Terminal Aerodrome Forecast
Issued by NWS

Home | Current Version | Previous Version | Text Only | Print | Product List | Glossary On
Versions: 1 2 3 4 5 6 7 8 9 10 11 12 13 14 15
759
FTUS46 KSGX 300520
TAFSNA
TAF
KSNA 300520Z 3006/0106 VRB03KT P6SM SKC
     FM301900 23010KT P6SM SKC
     FM010300 VRB04KT P6SM FEW010=

USA.gov is the U.S. government's official web portal to all federal, state and local government web resources and services.